createdAt,value
2023-03-12T00:02:24.216Z,63.10
2023-03-12T00:04:50.786Z,63.05
2023-03-12T00:07:17.295Z,63.36
2023-03-12T00:09:43.902Z,62.87
2023-03-12T00:12:10.436Z,62.75
2023-03-12T00:14:37.283Z,62.88
2023-03-12T00:17:03.838Z,63.00
2023-03-12T00:19:30.388Z,63.19
2023-03-12T00:21:56.900Z,63.13
2023-03-12T00:24:23.407Z,63.08
2023-03-12T00:26:49.875Z,63.58
2023-03-12T00:29:16.385Z,63.88
2023-03-12T00:31:42.994Z,64.57
2023-03-12T00:34:09.764Z,64.68
2023-03-12T00:36:36.463Z,64.71
2023-03-12T00:39:03.080Z,65.13
2023-03-12T00:41:30.402Z,64.78
2023-03-12T00:44:02.397Z,64.37
2023-03-12T00:46:29.294Z,63.83
2023-03-12T00:48:55.846Z,63.89
2023-03-12T00:51:22.528Z,63.63
2023-03-12T00:53:49.148Z,64.06
2023-03-12T00:56:15.719Z,63.72
2023-03-12T00:58:43.207Z,63.83
2023-03-12T01:01:10.168Z,63.54
2023-03-12T01:03:36.900Z,63.46
2023-03-12T01:06:03.838Z,63.72
2023-03-12T01:08:58.740Z,64.36
2023-03-12T01:11:25.235Z,65.07
2023-03-12T01:13:51.767Z,64.56
2023-03-12T01:16:28.083Z,64.51
2023-03-12T01:18:57.237Z,64.25
2023-03-12T01:21:27.901Z,64.26
2023-03-12T01:23:56.143Z,64.21
2023-03-12T01:26:23.353Z,63.87
2023-03-12T01:28:50.876Z,63.41
2023-03-12T01:31:19.587Z,63.40
2023-03-12T01:33:51.215Z,63.10
2023-03-12T01:36:28.092Z,62.77
2023-03-12T01:38:58.933Z,62.66
2023-03-12T01:41:29.819Z,62.56
2023-03-12T01:43:56.649Z,62.61
2023-03-12T01:46:32.286Z,62.88
2023-03-12T01:49:29.924Z,63.69
2023-03-12T01:52:09.346Z,63.92
2023-03-12T01:54:42.991Z,63.96
2023-03-12T01:57:26.574Z,63.77
2023-03-12T02:00:01.110Z,63.56
2023-03-12T02:02:29.806Z,64.00
2023-03-12T02:05:31.016Z,64.27
2023-03-12T02:07:58.332Z,64.28
2023-03-12T02:10:26.379Z,64.33
2023-03-12T02:12:53.666Z,65.00
2023-03-12T02:15:20.344Z,64.93
2023-03-12T02:17:46.928Z,64.66
2023-03-12T02:21:01.779Z,64.28
2023-03-12T02:24:00.668Z,64.03
2023-03-12T02:26:29.945Z,64.24
2023-03-12T02:28:59.873Z,63.93
2023-03-12T02:31:37.563Z,63.97
2023-03-12T02:34:04.135Z,64.09
2023-03-12T02:36:30.628Z,64.27
2023-03-12T02:38:57.533Z,64.49
2023-03-12T02:41:37.400Z,64.83
2023-03-12T02:44:11.443Z,64.52
2023-03-12T02:46:46.556Z,64.05
2023-03-12T02:49:14.197Z,64.71
2023-03-12T02:51:44.284Z,64.66
2023-03-12T02:54:13.292Z,64.92
2023-03-12T02:56:41.007Z,64.16
2023-03-12T02:59:10.089Z,63.54
2023-03-12T03:01:37.149Z,64.13
2023-03-12T03:04:06.810Z,65.06
2023-03-12T03:06:36.226Z,65.45
2023-03-12T03:09:03.698Z,64.90
2023-03-12T03:11:30.262Z,64.83
2023-03-12T03:13:57.022Z,64.69
2023-03-12T03:16:24.621Z,64.69
2023-03-12T03:18:52.027Z,64.42
2023-03-12T03:21:18.721Z,63.84
2023-03-12T03:23:50.535Z,64.01
2023-03-12T03:26:21.714Z,64.13
2023-03-12T03:28:48.882Z,65.12
2023-03-12T03:31:15.876Z,65.39
2023-03-12T03:33:42.934Z,65.08
2023-03-12T03:36:10.586Z,64.68
2023-03-12T03:38:37.383Z,64.19
2023-03-12T03:41:04.286Z,63.59
2023-03-12T03:43:30.867Z,63.06
2023-03-12T03:46:05.830Z,63.17
2023-03-12T03:48:33.373Z,63.98
2023-03-12T03:51:02.791Z,64.57
2023-03-12T03:53:29.514Z,64.40
2023-03-12T03:55:56.057Z,64.35
2023-03-12T03:58:23.147Z,64.15
2023-03-12T04:00:49.902Z,64.00
2023-03-12T04:03:16.515Z,64.07
2023-03-12T04:05:45.152Z,64.19
2023-03-12T04:08:14.877Z,64.35
2023-03-12T04:10:41.467Z,64.56
2023-03-12T04:13:08.035Z,64.73
2023-03-12T04:15:34.551Z,64.46
2023-03-12T04:18:01.014Z,64.22
2023-03-12T04:20:27.577Z,63.81
2023-03-12T04:22:54.070Z,64.11
2023-03-12T04:25:20.564Z,63.97
2023-03-12T04:27:47.077Z,63.85
2023-03-12T04:30:14.253Z,63.34
2023-03-12T04:32:40.745Z,63.21
2023-03-12T04:35:07.640Z,63.23
2023-03-12T04:37:34.271Z,63.49
2023-03-12T04:40:04.696Z,63.40
2023-03-12T04:42:31.412Z,63.30
2023-03-12T04:44:57.892Z,63.50
2023-03-12T04:47:24.375Z,64.15
2023-03-12T04:49:50.846Z,65.18
2023-03-12T04:52:17.694Z,65.45
2023-03-12T04:54:47.524Z,65.03
2023-03-12T04:57:14.569Z,64.23
2023-03-12T04:59:41.074Z,63.73
2023-03-12T05:02:07.736Z,64.41
2023-03-12T05:04:34.250Z,65.19
2023-03-12T05:07:00.934Z,64.82
2023-03-12T05:09:27.640Z,64.87
2023-03-12T05:11:54.273Z,65.09
2023-03-12T05:14:21.044Z,64.59
2023-03-12T05:16:47.585Z,64.92
2023-03-12T05:19:14.992Z,64.97
2023-03-12T05:21:44.569Z,65.02
2023-03-12T05:24:11.851Z,64.74
2023-03-12T05:26:40.037Z,64.15
2023-03-12T05:29:06.691Z,63.83
2023-03-12T05:31:35.289Z,63.52
2023-03-12T05:34:04.126Z,63.00
2023-03-12T05:36:30.773Z,63.19
2023-03-12T05:38:57.566Z,63.82
2023-03-12T05:41:29.202Z,64.24
2023-03-12T05:43:57.547Z,64.06
2023-03-12T05:46:27.520Z,63.43
2023-03-12T05:48:54.467Z,63.47
2023-03-12T05:51:21.584Z,63.44
2023-03-12T05:53:48.185Z,63.54
2023-03-12T05:56:17.538Z,63.22
2023-03-12T05:58:47.261Z,63.35
2023-03-12T06:01:24.963Z,62.72
2023-03-12T06:03:51.477Z,62.72
2023-03-12T06:06:18.796Z,62.54
2023-03-12T06:08:46.052Z,62.43
2023-03-12T06:11:13.238Z,61.86
2023-03-12T06:13:40.376Z,62.19
2023-03-12T06:16:25.675Z,62.75
2023-03-12T06:19:02.591Z,62.68
2023-03-12T06:21:33.431Z,62.66
2023-03-12T06:24:01.034Z,62.91
2023-03-12T06:26:28.848Z,62.16
2023-03-12T06:28:55.762Z,62.48
2023-03-12T06:31:23.203Z,62.46
2023-03-12T06:33:50.194Z,62.19
2023-03-12T06:36:17.055Z,62.08
2023-03-12T06:38:43.689Z,62.59
2023-03-12T06:41:17.687Z,62.61
2023-03-12T06:43:45.689Z,62.55
2023-03-12T06:46:21.602Z,61.99
2023-03-12T06:48:48.697Z,62.17
2023-03-12T06:51:17.436Z,62.48
2023-03-12T06:53:45.971Z,62.46
2023-03-12T06:56:14.113Z,62.26
2023-03-12T06:58:41.845Z,62.79
2023-03-12T07:01:09.028Z,62.42
2023-03-12T07:03:35.805Z,62.31
2023-03-12T07:06:02.808Z,62.10
2023-03-12T07:08:30.993Z,62.75
2023-03-12T07:11:01.638Z,63.76
2023-03-12T07:13:28.740Z,63.68
2023-03-12T07:15:55.330Z,63.66
2023-03-12T07:18:22.220Z,63.66
2023-03-12T07:20:48.820Z,64.30
2023-03-12T07:23:15.415Z,64.71
2023-03-12T07:25:43.588Z,65.09
2023-03-12T07:28:12.545Z,65.74
2023-03-12T07:30:40.136Z,65.31
2023-03-12T07:33:12.472Z,65.56
2023-03-12T07:35:39.965Z,66.37
2023-03-12T07:38:08.034Z,65.59
2023-03-12T07:40:36.391Z,65.73
2023-03-12T07:43:06.826Z,65.49
2023-03-12T07:45:33.369Z,65.57
2023-03-12T07:47:59.863Z,64.74
2023-03-12T07:50:26.427Z,64.96
2023-03-12T07:52:52.950Z,65.31
2023-03-12T07:55:19.678Z,65.62
2023-03-12T07:57:46.797Z,66.18
2023-03-12T08:00:15.317Z,65.88
2023-03-12T08:02:41.968Z,65.41
2023-03-12T08:05:08.819Z,65.62
2023-03-12T08:07:35.928Z,65.97
2023-03-12T08:10:06.711Z,65.99
2023-03-12T08:12:34.101Z,66.66
2023-03-12T08:15:00.595Z,66.28
2023-03-12T08:17:27.093Z,66.70
2023-03-12T08:19:54.161Z,66.89
2023-03-12T08:22:20.727Z,66.70
2023-03-12T08:24:47.667Z,66.69
2023-03-12T08:27:14.290Z,66.14
2023-03-12T08:29:41.937Z,66.00
2023-03-12T08:32:10.802Z,65.61
2023-03-12T08:34:38.013Z,66.28
2023-03-12T08:37:05.911Z,66.11
2023-03-12T08:39:33.222Z,66.38
2023-03-12T08:42:00.110Z,65.75
2023-03-12T08:44:27.045Z,65.96
2023-03-12T08:46:53.701Z,66.16
2023-03-12T08:49:21.691Z,66.46
2023-03-12T08:51:48.847Z,66.89
2023-03-12T08:54:15.404Z,66.34
2023-03-12T08:56:43.462Z,66.24
2023-03-12T08:59:13.798Z,65.62
2023-03-12T09:01:43.604Z,65.87
2023-03-12T09:04:10.837Z,66.16
2023-03-12T09:06:38.383Z,66.22
2023-03-12T09:09:05.640Z,66.70
2023-03-12T09:11:34.652Z,66.98
2023-03-12T09:14:42.444Z,66.69
2023-03-12T09:16:49.788Z,66.86
2023-03-12T09:19:16.702Z,67.19
2023-03-12T09:21:43.517Z,67.02
2023-03-12T09:24:11.475Z,67.11
2023-03-12T09:26:38.001Z,67.50
2023-03-12T09:29:04.691Z,67.06
2023-03-12T09:31:31.642Z,67.87
2023-03-12T09:33:58.136Z,67.79
2023-03-12T09:36:24.619Z,68.26
2023-03-12T09:38:51.133Z,67.98
2023-03-12T09:41:23.195Z,68.72
2023-03-12T09:44:09.147Z,68.27
2023-03-12T09:46:48.391Z,67.15
2023-03-12T09:49:35.164Z,67.82
2023-03-12T09:52:16.420Z,67.08
2023-03-12T09:54:58.927Z,67.82
2023-03-12T09:57:28.913Z,68.01
2023-03-12T09:59:56.961Z,68.32
2023-03-12T10:02:43.522Z,68.18
2023-03-12T10:05:26.422Z,68.74
2023-03-12T10:08:17.486Z,68.59
2023-03-12T10:11:08.469Z,70.05
2023-03-12T10:14:16.115Z,69.57
2023-03-12T10:17:08.654Z,69.47
2023-03-12T10:20:20.497Z,69.42
2023-03-12T10:23:04.659Z,69.04
2023-03-12T10:25:48.119Z,69.99
2023-03-12T10:28:26.035Z,69.91
2023-03-12T10:30:59.348Z,69.31
2023-03-12T10:33:42.544Z,69.60
2023-03-12T10:36:19.792Z,68.93
2023-03-12T10:38:48.611Z,68.15
2023-03-12T10:41:26.419Z,67.98
2023-03-12T10:43:54.780Z,68.37
2023-03-12T10:46:46.735Z,68.73
2023-03-12T10:49:22.064Z,68.29
2023-03-12T10:52:17.232Z,68.24
2023-03-12T10:54:48.012Z,68.20
2023-03-12T10:57:16.262Z,68.11
2023-03-12T10:59:47.640Z,67.52
2023-03-12T11:02:43.138Z,67.25
2023-03-12T11:05:25.880Z,66.97
2023-03-12T11:07:52.879Z,66.52
2023-03-12T11:10:45.636Z,67.13
2023-03-12T11:13:38.119Z,67.58
2023-03-12T11:16:16.612Z,67.64
2023-03-12T11:19:03.632Z,67.71
2023-03-12T11:21:37.001Z,67.82
2023-03-12T11:24:11.856Z,67.07
2023-03-12T11:26:50.303Z,67.18
2023-03-12T11:29:39.737Z,67.47
2023-03-12T11:32:15.632Z,67.77
2023-03-12T11:34:43.254Z,67.97
2023-03-12T11:37:38.129Z,67.04
2023-03-12T11:40:15.000Z,67.96
2023-03-12T11:43:43.656Z,68.92
2023-03-12T11:46:41.984Z,69.84
2023-03-12T11:49:44.981Z,69.40
2023-03-12T11:52:55.998Z,69.17
2023-03-12T11:55:30.561Z,69.43
2023-03-12T11:58:37.917Z,68.98
2023-03-12T12:01:26.261Z,69.35
2023-03-12T12:04:45.046Z,68.84
2023-03-12T12:07:47.763Z,68.04
2023-03-12T12:10:47.982Z,67.60
2023-03-12T12:13:46.854Z,67.46
2023-03-12T12:16:37.548Z,67.70
2023-03-12T12:19:33.849Z,67.69
2023-03-12T12:22:25.477Z,68.60
2023-03-12T12:25:00.736Z,68.08
2023-03-12T12:27:36.759Z,68.85
2023-03-12T12:30:40.764Z,69.94
2023-03-12T12:33:39.880Z,70.14
2023-03-12T12:36:10.555Z,71.07
2023-03-12T12:38:44.235Z,70.91
2023-03-12T12:41:27.391Z,70.58
2023-03-12T12:44:01.225Z,70.41
2023-03-12T12:47:01.242Z,70.40
2023-03-12T12:49:49.150Z,70.35
2023-03-12T12:52:22.373Z,69.73
2023-03-12T12:55:11.653Z,69.86
2023-03-12T12:57:44.947Z,69.97
2023-03-12T13:00:25.858Z,69.97
2023-03-12T13:02:56.360Z,70.35
2023-03-12T13:05:52.681Z,70.34
2023-03-12T13:08:44.793Z,70.57
2023-03-12T13:11:20.330Z,70.33
2023-03-12T13:14:10.572Z,70.27
2023-03-12T13:16:45.528Z,70.06
2023-03-12T13:19:14.797Z,69.84
2023-03-12T13:22:10.069Z,69.29
2023-03-12T13:25:12.430Z,69.02
2023-03-12T13:27:42.689Z,68.90
2023-03-12T13:30:46.354Z,69.19
2023-03-12T13:33:18.121Z,69.24
2023-03-12T13:36:25.830Z,68.49
2023-03-12T13:39:29.256Z,70.26
2023-03-12T13:41:58.349Z,69.57
2023-03-12T13:44:27.539Z,69.16
2023-03-12T13:47:26.426Z,68.95
2023-03-12T13:49:58.695Z,68.93
2023-03-12T13:52:30.713Z,69.97
2023-03-12T13:55:24.934Z,70.10
2023-03-12T13:57:58.426Z,69.38
2023-03-12T14:00:37.659Z,69.15
2023-03-12T14:03:24.860Z,69.57
2023-03-12T14:06:00.834Z,70.62
2023-03-12T14:08:47.968Z,70.28
2023-03-12T14:11:33.471Z,71.66
2023-03-12T14:14:29.586Z,71.23
2023-03-12T14:17:00.504Z,70.00
2023-03-12T14:19:31.452Z,69.55
2023-03-12T14:22:06.186Z,69.91
2023-03-12T14:24:40.367Z,70.46
2023-03-12T14:27:17.633Z,70.83
2023-03-12T14:29:56.720Z,70.45
2023-03-12T14:32:39.119Z,71.41
2023-03-12T14:35:21.868Z,71.62
2023-03-12T14:38:05.146Z,72.32
2023-03-12T14:41:14.334Z,72.52
2023-03-12T14:43:43.581Z,70.87
2023-03-12T14:46:20.574Z,70.91
2023-03-12T14:48:50.523Z,70.13
2023-03-12T14:51:35.361Z,70.50
2023-03-12T14:54:03.344Z,70.78
2023-03-12T14:56:35.845Z,70.37
2023-03-12T14:59:33.097Z,71.42
2023-03-12T15:02:11.222Z,71.21
2023-03-12T15:04:38.263Z,70.71
2023-03-12T15:07:11.274Z,70.82
2023-03-12T15:09:38.067Z,71.49
2023-03-12T15:12:19.349Z,70.97
2023-03-12T15:14:47.653Z,71.25
2023-03-12T15:17:19.328Z,70.53
2023-03-12T15:19:47.527Z,70.39
2023-03-12T15:22:20.873Z,69.46
2023-03-12T15:24:48.031Z,69.80
2023-03-12T15:27:28.570Z,69.91
2023-03-12T15:29:58.380Z,70.16
2023-03-12T15:32:26.865Z,69.37
2023-03-12T15:34:59.111Z,69.60
2023-03-12T15:37:38.620Z,70.64
2023-03-12T15:40:23.087Z,70.03
2023-03-12T15:42:49.882Z,70.03
2023-03-12T15:45:43.499Z,70.04
2023-03-12T15:48:41.128Z,70.55
2023-03-12T15:51:36.275Z,69.56
2023-03-12T15:54:28.294Z,69.83
2023-03-12T15:57:10.894Z,69.67
2023-03-12T15:59:37.541Z,69.43
2023-03-12T16:02:04.288Z,69.21
2023-03-12T16:04:30.821Z,69.55
2023-03-12T16:06:57.284Z,69.02
2023-03-12T16:09:33.176Z,69.20
2023-03-12T16:11:59.649Z,69.57
2023-03-12T16:14:36.151Z,69.73
2023-03-12T16:17:02.821Z,69.96
2023-03-12T16:19:33.565Z,69.64
2023-03-12T16:22:00.081Z,70.29
2023-03-12T16:24:26.553Z,70.14
2023-03-12T16:26:58.871Z,70.19
2023-03-12T16:29:43.430Z,70.60
2023-03-12T16:32:16.893Z,70.48
2023-03-12T16:34:45.421Z,70.63
2023-03-12T16:37:12.993Z,70.67
2023-03-12T16:39:40.223Z,70.45
2023-03-12T16:42:17.350Z,70.00
2023-03-12T16:44:46.667Z,70.08
2023-03-12T16:47:14.560Z,69.96
2023-03-12T16:49:41.449Z,70.41
2023-03-12T16:52:20.827Z,69.99
2023-03-12T16:54:51.564Z,69.77
2023-03-12T16:57:32.456Z,70.07
2023-03-12T17:00:01.201Z,70.30
2023-03-12T17:02:29.689Z,70.16
2023-03-12T17:04:56.633Z,70.83
2023-03-12T17:07:23.528Z,70.77
2023-03-12T17:09:50.049Z,70.73
2023-03-12T17:12:36.195Z,70.67
2023-03-12T17:15:11.712Z,70.64
2023-03-12T17:17:38.311Z,70.94
2023-03-12T17:20:08.513Z,71.53
2023-03-12T17:22:34.990Z,71.40
2023-03-12T17:25:01.757Z,71.81
2023-03-12T17:27:28.728Z,71.67
2023-03-12T17:29:55.358Z,71.39
2023-03-12T17:32:21.967Z,71.30
2023-03-12T17:34:56.739Z,70.79
2023-03-12T17:37:23.395Z,70.85
2023-03-12T17:39:49.860Z,70.72
2023-03-12T17:42:16.508Z,70.32
2023-03-12T17:44:42.972Z,70.14
2023-03-12T17:47:09.488Z,70.03
2023-03-12T17:49:36.124Z,70.32
2023-03-12T17:52:03.214Z,70.25
2023-03-12T17:54:30.097Z,70.27
2023-03-12T17:56:56.584Z,70.52
2023-03-12T17:59:23.067Z,70.31
2023-03-12T18:01:49.522Z,70.22
2023-03-12T18:04:16.096Z,69.76
2023-03-12T18:06:42.620Z,70.25
2023-03-12T18:09:09.090Z,70.51
2023-03-12T18:11:35.533Z,70.07
2023-03-12T18:14:02.105Z,70.62
2023-03-12T18:16:28.892Z,70.43
2023-03-12T18:18:55.480Z,70.46
2023-03-12T18:21:22.036Z,70.49
2023-03-12T18:23:48.608Z,70.28
2023-03-12T18:26:15.135Z,70.31
2023-03-12T18:28:42.343Z,70.54
2023-03-12T18:31:09.628Z,70.81
2023-03-12T18:33:37.223Z,71.13
2023-03-12T18:36:04.946Z,70.56
2023-03-12T18:38:32.638Z,70.79
2023-03-12T18:41:05.319Z,70.53
2023-03-12T18:43:32.983Z,70.39
2023-03-12T18:45:59.458Z,70.33
2023-03-12T18:48:26.405Z,70.79
2023-03-12T18:50:53.536Z,70.35
2023-03-12T18:53:20.716Z,70.34
2023-03-12T18:55:58.305Z,70.11
2023-03-12T18:58:27.853Z,70.30
2023-03-12T19:00:56.911Z,70.92
2023-03-12T19:03:25.170Z,70.42
2023-03-12T19:06:10.777Z,70.42
2023-03-12T19:08:38.014Z,69.77
2023-03-12T19:11:08.289Z,69.89
2023-03-12T19:13:35.300Z,70.21
2023-03-12T19:16:05.956Z,70.21
2023-03-12T19:18:35.264Z,70.07
2023-03-12T19:21:02.391Z,70.00
2023-03-12T19:23:29.453Z,70.14
2023-03-12T19:25:55.983Z,70.32
2023-03-12T19:28:22.526Z,70.65
2023-03-12T19:30:49.215Z,70.32
2023-03-12T19:33:15.706Z,70.81
2023-03-12T19:35:42.926Z,70.96
2023-03-12T19:38:09.619Z,70.78
2023-03-12T19:40:36.151Z,71.22
2023-03-12T19:43:03.165Z,70.55
2023-03-12T19:45:29.956Z,70.55
2023-03-12T19:47:56.731Z,70.58
2023-03-12T19:50:24.036Z,70.16
2023-03-12T19:52:50.572Z,70.44
2023-03-12T19:55:17.401Z,70.08
2023-03-12T19:57:43.951Z,70.13
2023-03-12T20:00:12.124Z,70.21
2023-03-12T20:02:39.499Z,70.26
2023-03-12T20:05:07.866Z,69.51
2023-03-12T20:07:35.053Z,69.62
2023-03-12T20:10:01.676Z,69.73
2023-03-12T20:12:28.285Z,69.95
2023-03-12T20:14:54.870Z,69.75
2023-03-12T20:17:21.372Z,70.00
2023-03-12T20:19:47.855Z,70.32
2023-03-12T20:22:14.589Z,70.17
2023-03-12T20:24:41.262Z,70.33
2023-03-12T20:27:07.810Z,70.79
2023-03-12T20:29:34.321Z,70.36
2023-03-12T20:32:00.876Z,70.74
2023-03-12T20:34:27.427Z,70.62
2023-03-12T20:36:54.135Z,69.87
2023-03-12T20:39:20.837Z,70.48
2023-03-12T20:41:49.805Z,70.01
2023-03-12T20:44:16.858Z,69.71
2023-03-12T20:46:43.317Z,69.63
2023-03-12T20:49:10.083Z,69.30
2023-03-12T20:51:36.565Z,69.56
2023-03-12T20:54:03.174Z,68.92
2023-03-12T20:56:29.722Z,69.13
2023-03-12T20:58:57.105Z,69.29
2023-03-12T21:03:58.631Z,69.74
2023-03-12T21:06:26.031Z,69.61
2023-03-12T21:08:56.088Z,69.67
2023-03-12T21:11:22.909Z,69.81
2023-03-12T21:13:49.455Z,69.87
2023-03-12T21:16:16.060Z,70.39
2023-03-12T21:18:42.584Z,70.03
2023-03-12T21:21:09.356Z,69.96
2023-03-12T21:23:36.936Z,69.79
2023-03-12T21:26:09.251Z,69.89
2023-03-12T21:28:36.185Z,69.43
2023-03-12T21:31:13.436Z,69.58
2023-03-12T21:33:40.126Z,69.88
2023-03-12T21:36:10.996Z,69.55
2023-03-12T21:38:39.453Z,70.13
2023-03-12T21:41:17.007Z,69.97
2023-03-12T21:43:45.332Z,70.01
2023-03-12T21:46:19.483Z,69.74
2023-03-12T21:48:48.128Z,70.07
2023-03-12T21:51:17.766Z,70.05
2023-03-12T21:53:44.458Z,70.63
2023-03-12T21:56:11.817Z,70.65
2023-03-12T21:58:38.592Z,70.01
2023-03-12T22:01:18.602Z,69.96
2023-03-12T22:03:46.262Z,70.15
2023-03-12T22:06:15.304Z,69.64
2023-03-12T22:08:43.539Z,69.87
2023-03-12T22:11:10.546Z,70.39
2023-03-12T22:13:37.936Z,69.98
2023-03-12T22:16:08.251Z,70.01
2023-03-12T22:18:40.761Z,70.30
2023-03-12T22:21:08.966Z,69.64
2023-03-12T22:23:37.061Z,69.82
2023-03-12T22:26:07.830Z,69.59
2023-03-12T22:28:35.064Z,70.04
2023-03-12T22:31:07.942Z,70.81
2023-03-12T22:33:36.422Z,70.92
2023-03-12T22:36:10.091Z,70.38
2023-03-12T22:38:38.191Z,70.11
2023-03-12T22:41:31.336Z,70.08
2023-03-12T22:44:04.968Z,70.50
2023-03-12T22:46:31.948Z,70.05
2023-03-12T22:49:01.679Z,69.82
2023-03-12T22:51:31.474Z,69.52
2023-03-12T22:53:58.085Z,69.37
2023-03-12T22:56:24.836Z,69.36
2023-03-12T22:58:51.584Z,69.85
2023-03-12T23:01:21.089Z,69.69
2023-03-12T23:03:48.703Z,69.77
2023-03-12T23:06:25.386Z,70.01
2023-03-12T23:08:54.722Z,70.32
2023-03-12T23:11:25.036Z,70.02
2023-03-12T23:13:52.625Z,69.64
2023-03-12T23:16:23.074Z,69.87
2023-03-12T23:18:50.162Z,69.73
2023-03-12T23:21:21.232Z,70.03
2023-03-12T23:23:48.811Z,70.03
2023-03-12T23:26:20.087Z,69.60
2023-03-12T23:28:47.445Z,69.71
2023-03-12T23:31:17.552Z,69.70
2023-03-12T23:33:44.878Z,69.95
2023-03-12T23:36:15.861Z,70.29
2023-03-12T23:38:43.279Z,70.24
2023-03-12T23:41:17.044Z,69.75
2023-03-12T23:43:44.614Z,70.25
2023-03-12T23:46:13.318Z,70.04
2023-03-12T23:48:40.986Z,70.04
2023-03-12T23:51:17.237Z,69.56
2023-03-12T23:53:48.226Z,69.67
2023-03-12T23:56:19.601Z,70.34
2023-03-12T23:58:48.056Z,69.91
